TimeCDT,TemperatureF,Dew PointF,Humidity,Sea Level PressureIn,VisibilityMPH,Wind Direction,Wind SpeedMPH,Gust SpeedMPH,PrecipitationIn,Events,Conditions,WindDirDegrees,DateUTC
12:15 AM,58.8,57.2,94,29.89,10.0,SSE,6.9,-,N/A,,Clear,160,2013-10-01 05:15:00
12:35 AM,58.1,56.8,96,29.89,10.0,SSE,3.5,-,N/A,,Clear,160,2013-10-01 05:35:00
12:55 AM,57.6,56.8,97,29.89,10.0,SSE,3.5,-,N/A,,Clear,150,2013-10-01 05:55:00
1:15 AM,57.4,57.2,99,29.90,10.0,SSE,3.5,-,N/A,,Clear,160,2013-10-01 06:15:00
1:35 AM,57.6,57.4,99,29.90,10.0,SSE,4.6,-,N/A,,Clear,160,2013-10-01 06:35:00
1:55 AM,57.9,57.4,98,29.90,10.0,SSE,5.8,-,N/A,,Clear,150,2013-10-01 06:55:00
2:15 AM,57.4,57.4,100,29.90,10.0,SSE,4.6,-,N/A,,Clear,150,2013-10-01 07:15:00
2:35 AM,57.0,57.0,100,29.90,10.0,SSE,4.6,-,N/A,,Clear,150,2013-10-01 07:35:00
2:55 AM,56.8,56.8,100,29.91,10.0,SSE,3.5,-,N/A,,Clear,160,2013-10-01 07:55:00
3:15 AM,57.2,57.2,100,29.91,10.0,SSE,5.8,-,N/A,,Clear,160,2013-10-01 08:15:00
3:35 AM,57.4,57.4,100,29.91,10.0,SSE,4.6,-,N/A,,Clear,160,2013-10-01 08:35:00
3:55 AM,58.1,58.1,100,29.91,10.0,South,5.8,-,N/A,,Clear,170,2013-10-01 08:55:00
4:15 AM,58.3,58.3,100,29.91,10.0,SSE,6.9,-,N/A,,Clear,160,2013-10-01 09:15:00
4:35 AM,58.1,58.1,100,29.91,7.0,SSE,5.8,-,N/A,,Clear,160,2013-10-01 09:35:00
4:55 AM,57.6,57.6,100,29.92,7.0,SSE,5.8,-,N/A,,Clear,160,2013-10-01 09:55:00
5:15 AM,57.9,57.9,100,29.93,7.0,South,4.6,-,N/A,,Mostly Cloudy,170,2013-10-01 10:15:00
5:35 AM,59.2,59.2,100,29.93,7.0,South,4.6,-,N/A,,Overcast,180,2013-10-01 10:35:00
5:55 AM,60.1,60.1,100,29.93,7.0,South,6.9,-,N/A,,Overcast,170,2013-10-01 10:55:00
6:15 AM,60.8,60.8,100,29.94,7.0,South,9.2,-,N/A,,Overcast,180,2013-10-01 11:15:00
6:35 AM,61.0,61.0,100,29.94,1.8,South,9.2,-,N/A,,Overcast,170,2013-10-01 11:35:00
6:55 AM,61.3,61.3,100,29.95,1.2,South,12.7,-,N/A,,Overcast,190,2013-10-01 11:55:00
7:15 AM,61.7,61.7,100,29.96,1.2,South,10.4,-,N/A,,Overcast,180,2013-10-01 12:15:00
7:35 AM,62.1,62.1,100,29.96,1.8,South,9.2,-,N/A,,Overcast,180,2013-10-01 12:35:00
7:55 AM,62.4,62.4,100,29.97,2.0,South,8.1,-,N/A,,Overcast,190,2013-10-01 12:55:00
8:15 AM,62.8,62.8,100,29.97,3.0,South,9.2,-,N/A,,Overcast,180,2013-10-01 13:15:00
8:35 AM,63.3,63.3,100,29.97,4.0,South,10.4,-,N/A,,Overcast,180,2013-10-01 13:35:00
8:55 AM,64.0,64.0,100,29.97,4.0,South,9.2,-,N/A,,Overcast,190,2013-10-01 13:55:00
9:15 AM,64.8,64.8,100,29.97,5.0,South,12.7,16.1,N/A,,Overcast,190,2013-10-01 14:15:00
9:35 AM,65.7,65.1,98,29.97,7.0,South,11.5,17.3,N/A,,Overcast,190,2013-10-01 14:35:00
9:55 AM,66.6,64.6,93,29.97,10.0,SSW,13.8,17.3,N/A,,Overcast,200,2013-10-01 14:55:00
10:15 AM,68.9,65.5,89,29.97,10.0,SSW,13.8,-,N/A,,Overcast,200,2013-10-01 15:15:00
10:35 AM,69.1,65.1,87,29.97,10.0,SSW,11.5,-,N/A,,Mostly Cloudy,210,2013-10-01 15:35:00
10:55 AM,70.5,66.0,86,29.97,10.0,South,9.2,-,N/A,,Scattered Clouds,190,2013-10-01 15:55:00
11:15 AM,71.8,65.5,80,29.97,10.0,South,13.8,18.4,N/A,,Mostly Cloudy,190,2013-10-01 16:15:00
11:35 AM,75.2,66.6,74,29.96,10.0,SSW,13.8,-,N/A,,Mostly Cloudy,210,2013-10-01 16:35:00
11:55 AM,76.8,66.4,70,29.96,10.0,SW,16.1,19.6,N/A,,Overcast,220,2013-10-01 16:55:00
12:15 PM,76.8,66.4,70,29.96,10.0,SSW,13.8,-,N/A,,Mostly Cloudy,200,2013-10-01 17:15:00
12:35 PM,77.5,66.2,68,29.95,10.0,SSW,15.0,23.0,N/A,,Mostly Cloudy,200,2013-10-01 17:35:00
12:55 PM,78.3,66.2,66,29.95,10.0,SSW,15.0,23.0,N/A,,Mostly Cloudy,200,2013-10-01 17:55:00
1:15 PM,78.8,65.8,64,29.94,10.0,SW,11.5,19.6,N/A,,Mostly Cloudy,220,2013-10-01 18:15:00
1:35 PM,79.7,65.3,61,29.94,10.0,SSW,16.1,24.2,N/A,,Mostly Cloudy,200,2013-10-01 18:35:00
1:55 PM,79.5,65.5,62,29.94,10.0,SW,10.4,19.6,N/A,,Scattered Clouds,220,2013-10-01 18:55:00
2:15 PM,80.4,64.2,58,29.93,10.0,SSW,12.7,20.7,N/A,,Scattered Clouds,200,2013-10-01 19:15:00
2:35 PM,81.1,64.2,56,29.92,10.0,South,13.8,20.7,N/A,,Scattered Clouds,190,2013-10-01 19:35:00
2:55 PM,81.3,62.8,53,29.92,10.0,SW,12.7,18.4,N/A,,Clear,230,2013-10-01 19:55:00
3:15 PM,81.5,62.8,53,29.92,10.0,South,12.7,19.6,N/A,,Clear,180,2013-10-01 20:15:00
3:35 PM,81.7,62.2,52,29.91,10.0,SSW,13.8,-,N/A,,Clear,210,2013-10-01 20:35:00
3:55 PM,81.7,61.5,50,29.91,10.0,SSW,15.0,19.6,N/A,,Clear,210,2013-10-01 20:55:00
4:15 PM,81.7,61.3,50,29.91,10.0,SSW,13.8,17.3,N/A,,Clear,210,2013-10-01 21:15:00
4:35 PM,81.7,60.6,49,29.92,10.0,SSW,11.5,-,N/A,,Clear,200,2013-10-01 21:35:00
4:55 PM,81.0,60.8,50,29.92,10.0,SW,10.4,-,N/A,,Clear,230,2013-10-01 21:55:00
5:15 PM,80.8,60.8,50,29.92,10.0,SW,9.2,-,N/A,,Clear,220,2013-10-01 22:15:00
5:35 PM,79.9,61.3,53,29.93,10.0,SSW,10.4,-,N/A,,Clear,210,2013-10-01 22:35:00
5:55 PM,78.6,61.9,56,29.93,10.0,SSW,8.1,-,N/A,,Clear,210,2013-10-01 22:55:00
6:15 PM,76.6,62.6,62,29.93,10.0,SSW,5.8,-,N/A,,Clear,200,2013-10-01 23:15:00
6:35 PM,74.3,62.1,65,29.93,10.0,SSW,5.8,-,N/A,,Clear,200,2013-10-01 23:35:00
6:55 PM,73.4,62.1,68,29.94,10.0,South,4.6,-,N/A,,Clear,190,2013-10-01 23:55:00
7:15 PM,72.0,61.7,70,29.94,10.0,SSW,3.5,-,N/A,,Clear,200,2013-10-02 00:15:00
7:35 PM,70.3,61.7,74,29.94,10.0,South,3.5,-,N/A,,Clear,190,2013-10-02 00:35:00
7:55 PM,67.6,61.5,81,29.95,10.0,SSE,3.5,-,N/A,,Clear,160,2013-10-02 00:55:00
8:15 PM,67.3,61.2,81,29.96,10.0,SSE,4.6,-,N/A,,Clear,150,2013-10-02 01:15:00
8:35 PM,66.7,60.8,81,29.96,10.0,SSE,3.5,-,N/A,,Clear,160,2013-10-02 01:35:00
8:55 PM,66.7,61.0,82,29.96,10.0,SSE,4.6,-,N/A,,Clear,160,2013-10-02 01:55:00
9:15 PM,66.7,61.3,83,29.96,10.0,SSE,5.8,-,N/A,,Clear,160,2013-10-02 02:15:00
9:35 PM,66.2,61.7,85,29.97,10.0,South,5.8,-,N/A,,Clear,170,2013-10-02 02:35:00
9:55 PM,65.7,62.1,88,29.97,10.0,South,4.6,-,N/A,,Clear,170,2013-10-02 02:55:00
10:15 PM,65.3,62.6,91,29.97,10.0,South,5.8,-,N/A,,Clear,180,2013-10-02 03:15:00
10:35 PM,65.1,63.0,93,29.98,10.0,South,5.8,-,N/A,,Clear,170,2013-10-02 03:35:00
10:55 PM,64.9,63.7,96,29.98,10.0,South,4.6,-,N/A,,Clear,180,2013-10-02 03:55:00
11:15 PM,64.6,64.2,99,29.98,7.0,South,4.6,-,N/A,,Clear,190,2013-10-02 04:15:00
11:35 PM,64.2,64.0,99,29.98,7.0,South,4.6,-,N/A,,Clear,190,2013-10-02 04:35:00
11:55 PM,63.7,63.7,100,29.99,5.0,South,4.6,-,N/A,,Clear,180,2013-10-02 04:55:00